sensor_id;sensor_type;location;lat;lon;timestamp;pressure;altitude;pressure_sealevel;temperature;humidity
53522;BME280;39398;48.382;9.802;2023-06-01T00:04:45;93972.50;;;13.11;98.22
53522;BME280;39398;48.382;9.802;2023-06-01T00:09:47;93975.56;;;13.08;97.66
53522;BME280;39398;48.382;9.802;2023-06-01T00:14:50;93973.53;;;13.10;97.52
53522;BME280;39398;48.382;9.802;2023-06-01T00:19:52;93968.25;;;13.10;96.85
53522;BME280;39398;48.382;9.802;2023-06-01T00:24:53;93967.03;;;12.92;98.52
53522;BME280;39398;48.382;9.802;2023-06-01T00:29:56;93961.13;;;12.84;98.24
53522;BME280;39398;48.382;9.802;2023-06-01T00:34:58;93961.94;;;12.91;97.21
53522;BME280;39398;48.382;9.802;2023-06-01T00:40:00;93952.38;;;12.76;97.95
53522;BME280;39398;48.382;9.802;2023-06-01T00:45:03;93944.63;;;12.55;99.23
53522;BME280;39398;48.382;9.802;2023-06-01T00:50:06;93949.50;;;12.65;98.54
53522;BME280;39398;48.382;9.802;2023-06-01T00:55:08;93950.09;;;12.47;99.29
53522;BME280;39398;48.382;9.802;2023-06-01T01:00:12;93946.84;;;12.45;99.05
53522;BME280;39398;48.382;9.802;2023-06-01T01:05:15;93949.41;;;12.05;100.00
53522;BME280;39398;48.382;9.802;2023-06-01T01:10:22;93950.28;;;12.25;100.00
53522;BME280;39398;48.382;9.802;2023-06-01T01:15:32;93945.41;;;12.36;100.00
53522;BME280;39398;48.382;9.802;2023-06-01T01:20:37;93938.84;;;12.25;100.00
53522;BME280;39398;48.382;9.802;2023-06-01T01:26:00;93951.25;;;12.11;100.00
53522;BME280;39398;48.382;9.802;2023-06-01T01:31:12;93952.09;;;12.18;100.00
53522;BME280;39398;48.382;9.802;2023-06-01T01:36:15;93943.13;;;12.13;100.00
53522;BME280;39398;48.382;9.802;2023-06-01T01:41:17;93951.94;;;12.46;99.66
53522;BME280;39398;48.382;9.802;2023-06-01T01:46:24;93946.63;;;12.53;98.92
53522;BME280;39398;48.382;9.802;2023-06-01T01:51:37;93939.84;;;12.04;100.00
53522;BME280;39398;48.382;9.802;2023-06-01T01:56:42;93939.16;;;11.82;100.00
53522;BME280;39398;48.382;9.802;2023-06-01T02:01:46;93935.75;;;11.95;100.00
53522;BME280;39398;48.382;9.802;2023-06-01T02:06:47;93942.56;;;11.69;100.00
53522;BME280;39398;48.382;9.802;2023-06-01T02:11:49;93938.72;;;11.78;100.00
53522;BME280;39398;48.382;9.802;2023-06-01T02:16:52;93941.03;;;11.95;100.00
53522;BME280;39398;48.382;9.802;2023-06-01T02:21:54;93929.66;;;11.94;100.00
53522;BME280;39398;48.382;9.802;2023-06-01T02:26:55;93931.31;;;12.08;100.00
53522;BME280;39398;48.382;9.802;2023-06-01T02:31:58;93933.84;;;11.75;100.00
53522;BME280;39398;48.382;9.802;2023-06-01T02:37:00;93934.19;;;11.59;100.00
53522;BME280;39398;48.382;9.802;2023-06-01T02:42:02;93924.09;;;11.82;100.00
53522;BME280;39398;48.382;9.802;2023-06-01T02:47:07;93923.78;;;12.12;100.00
53522;BME280;39398;48.382;9.802;2023-06-01T02:52:08;93924.41;;;12.21;100.00
53522;BME280;39398;48.382;9.802;2023-06-01T02:57:10;93914.03;;;12.19;100.00
53522;BME280;39398;48.382;9.802;2023-06-01T03:02:13;93920.38;;;12.65;99.66
53522;BME280;39398;48.382;9.802;2023-06-01T03:07:15;93920.56;;;12.37;100.00
53522;BME280;39398;48.382;9.802;2023-06-01T03:12:16;93922.94;;;12.05;100.00
53522;BME280;39398;48.382;9.802;2023-06-01T03:17:19;93917.28;;;12.21;100.00
53522;BME280;39398;48.382;9.802;2023-06-01T03:22:21;93924.25;;;12.49;100.00
53522;BME280;39398;48.382;9.802;2023-06-01T03:27:22;93925.03;;;12.43;100.00
53522;BME280;39398;48.382;9.802;2023-06-01T03:32:25;93925.00;;;12.09;100.00
53522;BME280;39398;48.382;9.802;2023-06-01T03:37:27;93930.31;;;12.16;100.00
53522;BME280;39398;48.382;9.802;2023-06-01T03:42:29;93930.72;;;12.13;100.00
53522;BME280;39398;48.382;9.802;2023-06-01T03:47:32;93930.94;;;12.31;100.00
53522;BME280;39398;48.382;9.802;2023-06-01T03:52:34;93937.25;;;12.30;100.00
53522;BME280;39398;48.382;9.802;2023-06-01T03:57:36;93946.81;;;12.31;100.00
53522;BME280;39398;48.382;9.802;2023-06-01T04:02:39;93941.75;;;12.63;100.00
53522;BME280;39398;48.382;9.802;2023-06-01T04:07:41;93940.13;;;12.75;100.00
53522;BME280;39398;48.382;9.802;2023-06-01T04:12:43;93938.91;;;12.65;100.00
53522;BME280;39398;48.382;9.802;2023-06-01T04:17:47;93945.03;;;12.72;100.00
53522;BME280;39398;48.382;9.802;2023-06-01T04:22:49;93948.69;;;12.57;100.00
53522;BME280;39398;48.382;9.802;2023-06-01T04:27:50;93953.38;;;12.55;100.00
53522;BME280;39398;48.382;9.802;2023-06-01T04:32:54;93954.81;;;12.65;100.00
53522;BME280;39398;48.382;9.802;2023-06-01T04:37:55;93957.03;;;12.54;100.00
53522;BME280;39398;48.382;9.802;2023-06-01T04:42:57;93958.25;;;12.65;100.00
53522;BME280;39398;48.382;9.802;2023-06-01T04:48:00;93955.59;;;12.85;100.00
53522;BME280;39398;48.382;9.802;2023-06-01T04:53:01;93958.47;;;12.97;100.00
53522;BME280;39398;48.382;9.802;2023-06-01T04:58:03;93957.03;;;13.21;100.00
53522;BME280;39398;48.382;9.802;2023-06-01T05:03:08;93955.97;;;13.42;100.00
53522;BME280;39398;48.382;9.802;2023-06-01T05:08:09;93957.56;;;13.63;100.00
53522;BME280;39398;48.382;9.802;2023-06-01T05:13:11;93959.13;;;13.77;100.00
53522;BME280;39398;48.382;9.802;2023-06-01T05:18:14;93964.72;;;14.01;100.00
53522;BME280;39398;48.382;9.802;2023-06-01T05:23:16;93953.97;;;14.34;100.00
53522;BME280;39398;48.382;9.802;2023-06-01T05:28:20;93963.50;;;14.41;100.00
53522;BME280;39398;48.382;9.802;2023-06-01T05:33:23;93958.13;;;14.55;100.00
53522;BME280;39398;48.382;9.802;2023-06-01T05:38:25;93967.41;;;14.77;97.99
53522;BME280;39398;48.382;9.802;2023-06-01T05:43:27;93962.53;;;15.18;91.72
53522;BME280;39398;48.382;9.802;2023-06-01T05:48:30;93959.50;;;15.57;93.30
53522;BME280;39398;48.382;9.802;2023-06-01T05:53:31;93960.44;;;15.63;87.74
53522;BME280;39398;48.382;9.802;2023-06-01T05:58:33;93957.97;;;15.87;88.99
53522;BME280;39398;48.382;9.802;2023-06-01T06:03:36;93961.16;;;15.95;88.21
53522;BME280;39398;48.382;9.802;2023-06-01T06:08:38;93965.81;;;16.30;88.09
53522;BME280;39398;48.382;9.802;2023-06-01T06:13:39;93959.34;;;16.68;90.82
53522;BME280;39398;48.382;9.802;2023-06-01T06:18:43;93963.47;;;16.52;89.72
53522;BME280;39398;48.382;9.802;2023-06-01T06:23:44;93966.38;;;16.62;86.85
53522;BME280;39398;48.382;9.802;2023-06-01T06:28:46;93959.28;;;16.44;85.45
53522;BME280;39398;48.382;9.802;2023-06-01T06:33:49;93967.47;;;16.73;84.22
53522;BME280;39398;48.382;9.802;2023-06-01T06:38:50;93957.84;;;17.14;85.06
53522;BME280;39398;48.382;9.802;2023-06-01T06:43:52;93975.31;;;16.86;88.79
53522;BME280;39398;48.382;9.802;2023-06-01T06:48:55;93968.63;;;17.19;87.63
53522;BME280;39398;48.382;9.802;2023-06-01T06:53:57;93963.06;;;17.44;89.67
53522;BME280;39398;48.382;9.802;2023-06-01T06:58:59;93968.28;;;17.51;87.15
53522;BME280;39398;48.382;9.802;2023-06-01T07:04:10;93967.00;;;17.53;88.57
53522;BME280;39398;48.382;9.802;2023-06-01T07:09:11;93960.41;;;18.20;85.86
53522;BME280;39398;48.382;9.802;2023-06-01T07:14:13;93962.19;;;18.43;82.34
53522;BME280;39398;48.382;9.802;2023-06-01T07:19:16;93964.75;;;19.12;79.22
53522;BME280;39398;48.382;9.802;2023-06-01T07:24:18;93964.41;;;18.74;79.56
53522;BME280;39398;48.382;9.802;2023-06-01T07:29:20;93970.66;;;18.97;82.84
53522;BME280;39398;48.382;9.802;2023-06-01T07:34:23;93967.25;;;19.52;76.51
53522;BME280;39398;48.382;9.802;2023-06-01T07:39:25;93970.13;;;19.12;78.07
53522;BME280;39398;48.382;9.802;2023-06-01T07:44:26;93964.31;;;19.37;77.63
53522;BME280;39398;48.382;9.802;2023-06-01T07:49:29;93966.09;;;20.04;80.74
53522;BME280;39398;48.382;9.802;2023-06-01T07:54:32;93962.03;;;20.45;74.48
53522;BME280;39398;48.382;9.802;2023-06-01T07:59:34;93963.56;;;21.44;68.63
53522;BME280;39398;48.382;9.802;2023-06-01T08:04:37;93963.78;;;20.34;75.01
53522;BME280;39398;48.382;9.802;2023-06-01T08:09:38;93961.81;;;20.74;75.83
53522;BME280;39398;48.382;9.802;2023-06-01T08:14:40;93965.47;;;20.89;74.04
53522;BME280;39398;48.382;9.802;2023-06-01T08:19:43;93957.53;;;22.17;64.26
53522;BME280;39398;48.382;9.802;2023-06-01T08:24:44;93963.19;;;20.76;73.15
53522;BME280;39398;48.382;9.802;2023-06-01T08:29:47;93965.16;;;20.86;76.88
53522;BME280;39398;48.382;9.802;2023-06-01T08:34:50;93964.41;;;20.41;73.25
53522;BME280;39398;48.382;9.802;2023-06-01T08:39:52;93964.19;;;20.70;71.02
53522;BME280;39398;48.382;9.802;2023-06-01T08:44:54;93963.72;;;21.05;72.90
53522;BME280;39398;48.382;9.802;2023-06-01T08:49:58;93953.09;;;21.16;75.26
53522;BME280;39398;48.382;9.802;2023-06-01T08:55:00;93959.81;;;21.18;68.53
53522;BME280;39398;48.382;9.802;2023-06-01T09:00:02;93967.78;;;21.40;67.59
53522;BME280;39398;48.382;9.802;2023-06-01T09:05:06;93959.81;;;21.98;67.28
53522;BME280;39398;48.382;9.802;2023-06-01T09:10:08;93957.34;;;22.34;59.37
53522;BME280;39398;48.382;9.802;2023-06-01T09:15:11;93961.56;;;21.72;63.03
53522;BME280;39398;48.382;9.802;2023-06-01T09:20:22;93964.38;;;22.55;59.61
53522;BME280;39398;48.382;9.802;2023-06-01T09:25:25;93960.66;;;22.56;71.03
53522;BME280;39398;48.382;9.802;2023-06-01T09:30:37;93958.53;;;22.79;63.26
53522;BME280;39398;48.382;9.802;2023-06-01T09:35:42;93957.47;;;22.06;63.36
53522;BME280;39398;48.382;9.802;2023-06-01T09:40:55;93960.19;;;21.64;67.33
53522;BME280;39398;48.382;9.802;2023-06-01T09:46:04;93955.72;;;22.33;64.23
53522;BME280;39398;48.382;9.802;2023-06-01T09:51:20;93950.56;;;21.73;63.67
53522;BME280;39398;48.382;9.802;2023-06-01T09:56:22;93947.78;;;22.11;63.39
53522;BME280;39398;48.382;9.802;2023-06-01T10:01:24;93940.81;;;21.62;63.37
53522;BME280;39398;48.382;9.802;2023-06-01T10:06:31;93937.63;;;21.65;63.23
53522;BME280;39398;48.382;9.802;2023-06-01T10:11:34;93939.69;;;22.73;63.71
53522;BME280;39398;48.382;9.802;2023-06-01T10:16:35;93944.19;;;22.42;64.72
53522;BME280;39398;48.382;9.802;2023-06-01T10:21:38;93929.13;;;22.51;56.93
53522;BME280;39398;48.382;9.802;2023-06-01T10:26:43;93928.13;;;22.00;62.80
53522;BME280;39398;48.382;9.802;2023-06-01T10:31:48;93933.44;;;22.47;64.17
53522;BME280;39398;48.382;9.802;2023-06-01T10:37:16;93936.25;;;23.29;60.34
53522;BME280;39398;48.382;9.802;2023-06-01T10:42:36;93932.19;;;23.57;51.14
53522;BME280;39398;48.382;9.802;2023-06-01T10:47:45;93931.19;;;24.33;53.46
53522;BME280;39398;48.382;9.802;2023-06-01T10:52:48;93928.13;;;23.85;50.60
53522;BME280;39398;48.382;9.802;2023-06-01T10:57:50;93920.78;;;24.06;51.20
53522;BME280;39398;48.382;9.802;2023-06-01T11:02:54;93921.84;;;24.05;53.20
53522;BME280;39398;48.382;9.802;2023-06-01T11:07:58;93915.84;;;25.23;46.99
53522;BME280;39398;48.382;9.802;2023-06-01T11:13:12;93919.00;;;24.96;51.03
53522;BME280;39398;48.382;9.802;2023-06-01T11:18:41;93919.31;;;25.28;53.23
53522;BME280;39398;48.382;9.802;2023-06-01T11:23:45;93905.31;;;25.21;50.10
53522;BME280;39398;48.382;9.802;2023-06-01T11:28:48;93904.16;;;23.84;54.53
53522;BME280;39398;48.382;9.802;2023-06-01T11:33:51;93899.06;;;23.62;54.82
53522;BME280;39398;48.382;9.802;2023-06-01T11:38:55;93894.00;;;24.25;53.47
53522;BME280;39398;48.382;9.802;2023-06-01T11:43:57;93887.19;;;24.88;52.86
53522;BME280;39398;48.382;9.802;2023-06-01T11:48:59;93886.44;;;25.16;50.28
53522;BME280;39398;48.382;9.802;2023-06-01T11:54:03;93885.84;;;25.24;50.39
53522;BME280;39398;48.382;9.802;2023-06-01T11:59:05;93889.44;;;25.44;48.48
53522;BME280;39398;48.382;9.802;2023-06-01T12:04:12;93875.47;;;24.63;57.05
53522;BME280;39398;48.382;9.802;2023-06-01T12:09:15;93863.00;;;25.06;53.27
53522;BME280;39398;48.382;9.802;2023-06-01T12:14:17;93875.41;;;25.08;54.16
53522;BME280;39398;48.382;9.802;2023-06-01T12:19:19;93866.31;;;24.98;49.94
53522;BME280;39398;48.382;9.802;2023-06-01T12:24:29;93860.06;;;25.03;52.73
53522;BME280;39398;48.382;9.802;2023-06-01T12:29:35;93851.88;;;25.18;54.21
53522;BME280;39398;48.382;9.802;2023-06-01T12:34:37;93847.00;;;24.42;57.92
53522;BME280;39398;48.382;9.802;2023-06-01T12:39:41;93844.72;;;22.88;62.85
53522;BME280;39398;48.382;9.802;2023-06-01T12:44:43;93849.19;;;23.54;61.03
53522;BME280;39398;48.382;9.802;2023-06-01T12:50:03;93836.59;;;24.64;52.20
53522;BME280;39398;48.382;9.802;2023-06-01T12:55:07;93828.25;;;24.11;52.82
53522;BME280;39398;48.382;9.802;2023-06-01T13:00:10;93829.75;;;24.32;53.65
53522;BME280;39398;48.382;9.802;2023-06-01T13:05:12;93831.66;;;24.32;54.17
53522;BME280;39398;48.382;9.802;2023-06-01T13:10:15;93828.19;;;24.26;48.09
53522;BME280;39398;48.382;9.802;2023-06-01T13:15:16;93821.00;;;24.90;50.87
53522;BME280;39398;48.382;9.802;2023-06-01T13:20:18;93817.41;;;25.00;49.53
53522;BME280;39398;48.382;9.802;2023-06-01T13:25:21;93807.59;;;24.46;49.65
53522;BME280;39398;48.382;9.802;2023-06-01T13:30:22;93804.53;;;24.08;52.01
53522;BME280;39398;48.382;9.802;2023-06-01T13:35:24;93791.38;;;23.96;60.76
53522;BME280;39398;48.382;9.802;2023-06-01T13:40:27;93793.81;;;23.98;63.49
53522;BME280;39398;48.382;9.802;2023-06-01T13:45:29;93794.63;;;22.62;63.06
53522;BME280;39398;48.382;9.802;2023-06-01T13:50:30;93796.78;;;22.85;63.20
53522;BME280;39398;48.382;9.802;2023-06-01T13:55:33;93781.28;;;23.62;57.50
53522;BME280;39398;48.382;9.802;2023-06-01T14:00:35;93774.63;;;24.09;60.66
53522;BME280;39398;48.382;9.802;2023-06-01T14:05:37;93765.50;;;23.95;56.67
53522;BME280;39398;48.382;9.802;2023-06-01T14:11:00;93772.91;;;23.64;56.50
53522;BME280;39398;48.382;9.802;2023-06-01T14:16:01;93769.41;;;24.18;56.29
53522;BME280;39398;48.382;9.802;2023-06-01T14:21:03;93759.00;;;24.51;53.45
53522;BME280;39398;48.382;9.802;2023-06-01T14:26:06;93752.97;;;23.70;56.75
53522;BME280;39398;48.382;9.802;2023-06-01T14:31:08;93758.78;;;23.33;60.23
53522;BME280;39398;48.382;9.802;2023-06-01T14:36:10;93757.59;;;24.14;57.80
53522;BME280;39398;48.382;9.802;2023-06-01T14:41:13;93750.16;;;24.35;59.60
53522;BME280;39398;48.382;9.802;2023-06-01T14:46:14;93756.00;;;24.81;58.93
53522;BME280;39398;48.382;9.802;2023-06-01T14:51:16;93746.75;;;24.93;60.42
53522;BME280;39398;48.382;9.802;2023-06-01T14:56:19;93738.75;;;24.48;58.81
53522;BME280;39398;48.382;9.802;2023-06-01T15:01:21;93734.03;;;23.85;52.58
53522;BME280;39398;48.382;9.802;2023-06-01T15:06:23;93731.38;;;23.80;54.43
53522;BME280;39398;48.382;9.802;2023-06-01T15:11:26;93737.63;;;23.60;55.22
53522;BME280;39398;48.382;9.802;2023-06-01T15:16:27;93731.03;;;23.92;51.00
53522;BME280;39398;48.382;9.802;2023-06-01T15:21:29;93735.84;;;24.00;54.26
53522;BME280;39398;48.382;9.802;2023-06-01T15:26:32;93730.34;;;24.16;57.11
53522;BME280;39398;48.382;9.802;2023-06-01T15:31:34;93729.59;;;23.45;54.07
53522;BME280;39398;48.382;9.802;2023-06-01T15:36:36;93734.09;;;23.70;55.67
53522;BME280;39398;48.382;9.802;2023-06-01T15:41:39;93728.25;;;23.48;53.65
53522;BME280;39398;48.382;9.802;2023-06-01T15:46:44;93734.00;;;23.31;57.70
53522;BME280;39398;48.382;9.802;2023-06-01T15:51:45;93728.91;;;23.24;60.27
53522;BME280;39398;48.382;9.802;2023-06-01T15:56:48;93725.16;;;23.10;52.83
53522;BME280;39398;48.382;9.802;2023-06-01T16:01:50;93716.84;;;23.66;54.61
53522;BME280;39398;48.382;9.802;2023-06-01T16:06:52;93712.03;;;23.58;55.49
53522;BME280;39398;48.382;9.802;2023-06-01T16:11:55;93703.66;;;22.84;55.57
53522;BME280;39398;48.382;9.802;2023-06-01T16:16:56;93699.88;;;23.11;50.07
53522;BME280;39398;48.382;9.802;2023-06-01T16:21:58;93703.72;;;22.69;50.87
53522;BME280;39398;48.382;9.802;2023-06-01T16:27:01;93692.94;;;22.69;53.71
53522;BME280;39398;48.382;9.802;2023-06-01T16:32:03;93701.84;;;22.49;54.57
53522;BME280;39398;48.382;9.802;2023-06-01T16:37:05;93698.09;;;22.19;59.12
53522;BME280;39398;48.382;9.802;2023-06-01T16:42:08;93705.88;;;22.26;58.08
53522;BME280;39398;48.382;9.802;2023-06-01T16:47:10;93694.03;;;22.12;62.41
53522;BME280;39398;48.382;9.802;2023-06-01T16:52:11;93692.09;;;21.81;59.62
53522;BME280;39398;48.382;9.802;2023-06-01T16:57:14;93688.59;;;21.61;60.82
53522;BME280;39398;48.382;9.802;2023-06-01T17:02:16;93700.66;;;21.63;66.89
53522;BME280;39398;48.382;9.802;2023-06-01T17:07:18;93690.69;;;21.43;61.89
53522;BME280;39398;48.382;9.802;2023-06-01T17:12:21;93702.03;;;21.61;59.27
53522;BME280;39398;48.382;9.802;2023-06-01T17:17:22;93689.53;;;21.29;60.72
53522;BME280;39398;48.382;9.802;2023-06-01T17:22:24;93690.81;;;21.11;62.13
53522;BME280;39398;48.382;9.802;2023-06-01T17:27:27;93696.50;;;21.20;61.70
53522;BME280;39398;48.382;9.802;2023-06-01T17:32:29;93689.97;;;21.05;62.33
53522;BME280;39398;48.382;9.802;2023-06-01T17:37:30;93693.25;;;21.12;63.28
53522;BME280;39398;48.382;9.802;2023-06-01T17:42:33;93695.78;;;20.82;65.98
53522;BME280;39398;48.382;9.802;2023-06-01T17:47:35;93697.41;;;20.88;64.87
53522;BME280;39398;48.382;9.802;2023-06-01T17:52:37;93698.88;;;20.63;68.15
53522;BME280;39398;48.382;9.802;2023-06-01T17:57:40;93697.50;;;20.61;69.87
53522;BME280;39398;48.382;9.802;2023-06-01T18:02:41;93696.75;;;20.65;68.71
53522;BME280;39398;48.382;9.802;2023-06-01T18:07:43;93692.25;;;20.76;68.88
53522;BME280;39398;48.382;9.802;2023-06-01T18:12:46;93699.53;;;20.81;66.17
53522;BME280;39398;48.382;9.802;2023-06-01T18:17:48;93697.47;;;20.93;69.29
53522;BME280;39398;48.382;9.802;2023-06-01T18:22:49;93698.19;;;21.36;67.95
53522;BME280;39398;48.382;9.802;2023-06-01T18:27:52;93699.13;;;21.14;69.41
53522;BME280;39398;48.382;9.802;2023-06-01T18:32:54;93699.97;;;21.20;68.04
53522;BME280;39398;48.382;9.802;2023-06-01T18:37:56;93704.91;;;20.86;68.98
53522;BME280;39398;48.382;9.802;2023-06-01T18:42:58;93698.16;;;20.36;72.92
53522;BME280;39398;48.382;9.802;2023-06-01T18:48:00;93700.44;;;20.22;72.25
53522;BME280;39398;48.382;9.802;2023-06-01T18:53:02;93704.63;;;20.08;73.61
53522;BME280;39398;48.382;9.802;2023-06-01T18:58:05;93707.38;;;19.86;75.17
53522;BME280;39398;48.382;9.802;2023-06-01T19:03:06;93710.28;;;19.84;76.01
53522;BME280;39398;48.382;9.802;2023-06-01T19:08:09;93710.78;;;19.54;77.62
53522;BME280;39398;48.382;9.802;2023-06-01T19:13:14;93708.94;;;19.33;77.69
53522;BME280;39398;48.382;9.802;2023-06-01T19:18:16;93715.09;;;19.11;79.04
53522;BME280;39398;48.382;9.802;2023-06-01T19:23:18;93704.03;;;18.80;80.12
53522;BME280;39398;48.382;9.802;2023-06-01T19:28:20;93716.94;;;18.50;82.35
53522;BME280;39398;48.382;9.802;2023-06-01T19:33:23;93712.66;;;18.32;83.86
53522;BME280;39398;48.382;9.802;2023-06-01T19:38:25;93717.44;;;18.13;85.30
53522;BME280;39398;48.382;9.802;2023-06-01T19:43:38;93726.34;;;18.19;84.51
53522;BME280;39398;48.382;9.802;2023-06-01T19:48:39;93725.13;;;18.09;84.88
53522;BME280;39398;48.382;9.802;2023-06-01T19:53:43;93727.47;;;17.89;85.22
53522;BME280;39398;48.382;9.802;2023-06-01T19:58:47;93732.50;;;17.74;86.61
53522;BME280;39398;48.382;9.802;2023-06-01T20:03:49;93729.28;;;17.72;86.28
53522;BME280;39398;48.382;9.802;2023-06-01T20:08:55;93731.56;;;17.51;87.42
53522;BME280;39398;48.382;9.802;2023-06-01T20:14:02;93733.22;;;17.69;84.73
53522;BME280;39398;48.382;9.802;2023-06-01T20:19:07;93736.53;;;17.88;84.80
53522;BME280;39398;48.382;9.802;2023-06-01T20:24:08;93732.50;;;17.74;84.13
53522;BME280;39398;48.382;9.802;2023-06-01T20:29:14;93738.81;;;18.30;79.83
53522;BME280;39398;48.382;9.802;2023-06-01T20:34:20;93729.25;;;18.51;77.62
53522;BME280;39398;48.382;9.802;2023-06-01T20:39:23;93727.31;;;18.46;77.00
53522;BME280;39398;48.382;9.802;2023-06-01T20:44:26;93729.69;;;18.26;77.66
53522;BME280;39398;48.382;9.802;2023-06-01T20:49:28;93728.38;;;18.28;77.33
53522;BME280;39398;48.382;9.802;2023-06-01T20:54:29;93724.09;;;18.10;76.93
53522;BME280;39398;48.382;9.802;2023-06-01T20:59:32;93723.94;;;17.72;79.96
53522;BME280;39398;48.382;9.802;2023-06-01T21:04:36;93716.41;;;17.69;79.09
53522;BME280;39398;48.382;9.802;2023-06-01T21:09:38;93718.63;;;17.88;76.93
53522;BME280;39398;48.382;9.802;2023-06-01T21:14:41;93720.66;;;18.15;74.81
53522;BME280;39398;48.382;9.802;2023-06-01T21:19:43;93716.53;;;18.24;74.39
53522;BME280;39398;48.382;9.802;2023-06-01T21:24:44;93710.38;;;18.41;71.92
53522;BME280;39398;48.382;9.802;2023-06-01T21:29:47;93709.22;;;18.53;71.48
53522;BME280;39398;48.382;9.802;2023-06-01T21:34:49;93716.47;;;18.19;72.97
53522;BME280;39398;48.382;9.802;2023-06-01T21:39:51;93713.38;;;18.27;71.73
53522;BME280;39398;48.382;9.802;2023-06-01T21:44:54;93711.69;;;18.04;72.92
53522;BME280;39398;48.382;9.802;2023-06-01T21:49:55;93721.28;;;17.43;77.83
53522;BME280;39398;48.382;9.802;2023-06-01T21:54:57;93710.94;;;17.47;77.49
53522;BME280;39398;48.382;9.802;2023-06-01T22:00:01;93714.94;;;18.06;73.56
53522;BME280;39398;48.382;9.802;2023-06-01T22:05:02;93707.16;;;18.22;71.59
53522;BME280;39398;48.382;9.802;2023-06-01T22:10:05;93706.66;;;18.42;69.96
53522;BME280;39398;48.382;9.802;2023-06-01T22:15:09;93700.97;;;18.55;68.73
53522;BME280;39398;48.382;9.802;2023-06-01T22:20:11;93707.63;;;18.52;69.43
53522;BME280;39398;48.382;9.802;2023-06-01T22:25:13;93706.84;;;18.35;69.91
53522;BME280;39398;48.382;9.802;2023-06-01T22:30:16;93706.00;;;18.34;69.90
53522;BME280;39398;48.382;9.802;2023-06-01T22:35:18;93706.34;;;18.38;69.63
53522;BME280;39398;48.382;9.802;2023-06-01T22:40:19;93706.59;;;18.20;69.69
53522;BME280;39398;48.382;9.802;2023-06-01T22:45:22;93712.50;;;18.22;69.85
53522;BME280;39398;48.382;9.802;2023-06-01T22:50:24;93706.44;;;17.64;72.32
53522;BME280;39398;48.382;9.802;2023-06-01T22:55:26;93709.69;;;17.66;71.31
53522;BME280;39398;48.382;9.802;2023-06-01T23:00:29;93727.59;;;14.13;97.18
53522;BME280;39398;48.382;9.802;2023-06-01T23:05:31;93718.13;;;14.24;100.00
53522;BME280;39398;48.382;9.802;2023-06-01T23:10:32;93704.97;;;14.91;94.87
53522;BME280;39398;48.382;9.802;2023-06-01T23:15:35;93705.94;;;15.27;90.88
53522;BME280;39398;48.382;9.802;2023-06-01T23:20:38;93707.09;;;15.01;91.47
53522;BME280;39398;48.382;9.802;2023-06-01T23:25:39;93708.59;;;14.60;94.44
53522;BME280;39398;48.382;9.802;2023-06-01T23:30:42;93705.59;;;14.50;94.85
53522;BME280;39398;48.382;9.802;2023-06-01T23:35:44;93710.28;;;14.29;96.91
53522;BME280;39398;48.382;9.802;2023-06-01T23:40:46;93717.38;;;13.92;100.00
53522;BME280;39398;48.382;9.802;2023-06-01T23:45:49;93715.28;;;13.76;100.00
53522;BME280;39398;48.382;9.802;2023-06-01T23:50:50;93707.94;;;13.96;99.38
53522;BME280;39398;48.382;9.802;2023-06-01T23:55:52;93709.47;;;13.85;100.00
